createdAt,value
2019-01-15T00:08:01.497Z,1007.96
2019-01-15T00:23:01.538Z,1008.03
2019-01-15T00:28:01.403Z,1008.03
2019-01-15T00:43:01.598Z,1007.95
2019-01-15T00:58:01.577Z,1007.89
2019-01-15T01:03:01.540Z,1007.83
2019-01-15T01:19:02.399Z,1007.82
2019-01-15T01:34:01.535Z,1007.58
2019-01-15T01:49:01.491Z,1007.42
2019-01-15T01:54:01.533Z,1007.38
2019-01-15T02:04:01.493Z,1007.4
2019-01-15T02:09:01.405Z,1007.4
2019-01-15T02:14:01.515Z,1007.34
2019-01-15T02:19:01.436Z,1007.34
2019-01-15T02:24:01.619Z,1007.17
2019-01-15T02:34:01.528Z,1007.12
2019-01-15T02:44:01.536Z,1006.96
2019-01-15T02:54:01.531Z,1006.98
2019-01-15T03:04:01.533Z,1006.65
2019-01-15T03:09:01.459Z,1006.65
2019-01-15T03:19:01.536Z,1006.33
2019-01-15T03:24:01.471Z,1006.43
2019-01-15T03:35:01.561Z,1006.25
2019-01-15T03:45:01.519Z,1006.05
2019-01-15T04:00:01.506Z,1005.83
2019-01-15T04:05:01.536Z,1005.44
2019-01-15T04:15:01.521Z,1005.51
2019-01-15T04:25:01.482Z,1005.46
2019-01-15T04:41:01.730Z,1005.51
2019-01-15T04:46:01.646Z,1005.75
2019-01-15T04:56:01.401Z,1005.57
2019-01-15T05:01:02.330Z,1005.57
2019-01-15T05:06:01.462Z,1005.37
2019-01-15T05:11:01.543Z,1005.37
2019-01-15T05:16:01.403Z,1005.42
2019-01-15T05:31:01.537Z,1005.22
2019-01-15T05:36:01.417Z,1005.14
2019-01-15T05:46:01.529Z,1005.08
2019-01-15T06:01:01.460Z,1004.99
2019-01-15T06:16:01.590Z,1005.15
2019-01-15T06:32:01.269Z,1005.18
2019-01-15T06:42:01.407Z,1005.39
2019-01-15T06:52:01.406Z,1005.35
2019-01-15T07:07:01.416Z,1005.35
2019-01-15T07:12:01.895Z,1005.32
2019-01-15T07:22:01.741Z,1005.31
2019-01-15T07:32:01.537Z,1005.33
2019-01-15T07:37:01.549Z,1005.33
2019-01-15T07:42:01.639Z,1005.27
2019-01-15T07:52:01.628Z,1005.25
2019-01-15T08:02:01.607Z,1005.1
2019-01-15T08:07:01.558Z,1005.1
2019-01-15T08:17:01.595Z,1005.16
2019-01-15T08:27:01.780Z,1005.05
2019-01-15T08:42:01.596Z,1004.91
2019-01-15T08:52:01.590Z,1004.92
2019-01-15T09:07:01.622Z,1004.96
2019-01-15T09:17:01.747Z,1004.8
2019-01-15T09:22:01.543Z,1004.8
2019-01-15T09:32:01.552Z,1004.69
2019-01-15T09:43:01.566Z,1004.42
2019-01-15T09:58:01.620Z,1004.23
2019-01-15T10:13:01.546Z,1003.94
2019-01-15T10:18:01.586Z,1003.94
2019-01-15T10:33:01.591Z,1003.39
2019-01-15T10:43:03.775Z,1003.34
2019-01-15T10:48:01.556Z,1003.34
2019-01-15T11:03:01.576Z,1003.0
2019-01-15T11:18:01.563Z,1002.87
2019-01-15T11:28:01.570Z,1002.89
2019-01-15T11:43:01.567Z,1002.47
2019-01-15T11:58:01.561Z,1002.29
2019-01-15T12:13:01.597Z,1002.18
2019-01-15T12:28:01.360Z,1001.96
2019-01-15T12:43:01.989Z,1001.9
2019-01-15T12:58:01.404Z,1001.65
2019-01-15T13:13:01.419Z,1001.57
2019-01-15T13:28:01.453Z,1001.49
2019-01-15T13:43:06.433Z,1001.31
2019-01-15T13:58:06.427Z,1001.14
2019-01-15T14:03:06.446Z,1001.2
2019-01-15T14:18:01.435Z,1001.01
2019-01-15T14:33:01.586Z,1001.31
2019-01-15T14:43:01.399Z,1001.17
2019-01-15T14:58:01.416Z,1001.36
2019-01-15T15:13:01.393Z,1001.38
2019-01-15T15:18:01.402Z,1001.38
2019-01-15T15:33:01.508Z,1001.67
2019-01-15T15:48:01.372Z,1001.73
2019-01-15T16:03:01.406Z,1001.72
2019-01-15T16:18:01.417Z,1001.69
2019-01-15T16:33:01.393Z,1001.76
2019-01-15T16:48:01.551Z,1001.71
2019-01-15T16:58:01.560Z,1001.91
2019-01-15T17:13:01.562Z,1002.08
2019-01-15T17:28:01.533Z,1002.2
2019-01-15T17:43:01.482Z,1002.18
2019-01-15T17:58:01.592Z,1002.33
2019-01-15T18:13:01.539Z,1002.17
2019-01-15T18:28:01.532Z,1002.2
2019-01-15T18:44:01.561Z,1002.49
2019-01-15T18:59:01.461Z,1002.44
2019-01-15T19:04:01.609Z,1002.45
2019-01-15T19:19:01.504Z,1002.46
2019-01-15T19:35:02.176Z,1002.37
2019-01-15T19:45:01.516Z,1002.23
2019-01-15T20:00:01.560Z,1002.31
2019-01-15T20:15:01.636Z,1002.36
2019-01-15T20:30:01.471Z,1002.37
2019-01-15T20:45:01.547Z,1002.34
2019-01-15T21:00:01.607Z,1002.36
2019-01-15T21:15:01.547Z,1002.31
2019-01-15T21:20:01.473Z,1002.31
2019-01-15T21:30:01.537Z,1002.33
2019-01-15T21:45:01.624Z,1002.34
2019-01-15T22:00:01.616Z,1002.37
2019-01-15T22:15:01.630Z,1002.39
2019-01-15T22:30:01.607Z,1002.39
2019-01-15T22:45:01.617Z,1002.38
2019-01-15T23:00:01.749Z,1002.41
2019-01-15T23:16:01.495Z,1002.39
2019-01-15T23:26:01.599Z,1002.37
2019-01-15T23:41:01.534Z,1002.34
2019-01-15T23:56:01.510Z,1002.19
